sensor_id;sensor_type;location;lat;lon;timestamp;P1;durP1;ratioP1;P2;durP2;ratioP2
12892;SDS011;6514;48.606;9.222;2024-02-28T00:00:31;26.77;;;15.57;;
12892;SDS011;6514;48.606;9.222;2024-02-28T00:02:59;23.90;;;14.37;;
12892;SDS011;6514;48.606;9.222;2024-02-28T00:05:26;25.27;;;14.90;;
12892;SDS011;6514;48.606;9.222;2024-02-28T00:07:53;22.77;;;13.87;;
12892;SDS011;6514;48.606;9.222;2024-02-28T00:10:20;23.83;;;14.80;;
12892;SDS011;6514;48.606;9.222;2024-02-28T00:12:46;22.90;;;14.63;;
12892;SDS011;6514;48.606;9.222;2024-02-28T00:15:13;24.73;;;14.47;;
12892;SDS011;6514;48.606;9.222;2024-02-28T00:17:39;21.60;;;13.83;;
12892;SDS011;6514;48.606;9.222;2024-02-28T00:20:08;23.73;;;14.53;;
12892;SDS011;6514;48.606;9.222;2024-02-28T00:22:36;21.40;;;14.17;;
12892;SDS011;6514;48.606;9.222;2024-02-28T00:25:03;19.73;;;13.73;;
12892;SDS011;6514;48.606;9.222;2024-02-28T00:27:31;20.97;;;13.83;;
12892;SDS011;6514;48.606;9.222;2024-02-28T00:29:58;24.73;;;15.07;;
12892;SDS011;6514;48.606;9.222;2024-02-28T00:32:25;21.27;;;13.57;;
12892;SDS011;6514;48.606;9.222;2024-02-28T00:34:52;24.77;;;15.27;;
12892;SDS011;6514;48.606;9.222;2024-02-28T00:37:20;21.87;;;14.50;;
12892;SDS011;6514;48.606;9.222;2024-02-28T00:39:47;22.00;;;13.60;;
12892;SDS011;6514;48.606;9.222;2024-02-28T00:42:14;25.17;;;14.70;;
12892;SDS011;6514;48.606;9.222;2024-02-28T00:44:41;21.03;;;14.37;;
12892;SDS011;6514;48.606;9.222;2024-02-28T00:47:08;21.03;;;13.87;;
12892;SDS011;6514;48.606;9.222;2024-02-28T00:49:35;21.17;;;13.60;;
12892;SDS011;6514;48.606;9.222;2024-02-28T00:52:02;20.57;;;13.20;;
12892;SDS011;6514;48.606;9.222;2024-02-28T00:54:30;23.17;;;14.03;;
12892;SDS011;6514;48.606;9.222;2024-02-28T00:56:57;22.67;;;14.17;;
12892;SDS011;6514;48.606;9.222;2024-02-28T00:59:24;22.80;;;14.27;;
12892;SDS011;6514;48.606;9.222;2024-02-28T01:01:51;22.57;;;14.77;;
12892;SDS011;6514;48.606;9.222;2024-02-28T01:04:18;24.83;;;14.33;;
12892;SDS011;6514;48.606;9.222;2024-02-28T01:06:45;21.67;;;13.73;;
12892;SDS011;6514;48.606;9.222;2024-02-28T01:09:12;19.50;;;13.43;;
12892;SDS011;6514;48.606;9.222;2024-02-28T01:11:42;22.57;;;14.47;;
12892;SDS011;6514;48.606;9.222;2024-02-28T01:14:09;20.53;;;13.07;;
12892;SDS011;6514;48.606;9.222;2024-02-28T01:16:36;21.37;;;14.10;;
12892;SDS011;6514;48.606;9.222;2024-02-28T01:19:03;24.93;;;15.27;;
12892;SDS011;6514;48.606;9.222;2024-02-28T01:21:30;21.23;;;13.53;;
12892;SDS011;6514;48.606;9.222;2024-02-28T01:23:57;22.53;;;13.97;;
12892;SDS011;6514;48.606;9.222;2024-02-28T01:26:23;20.60;;;13.37;;
12892;SDS011;6514;48.606;9.222;2024-02-28T01:28:52;20.93;;;13.97;;
12892;SDS011;6514;48.606;9.222;2024-02-28T01:31:18;21.60;;;14.23;;
12892;SDS011;6514;48.606;9.222;2024-02-28T01:33:45;22.47;;;14.00;;
12892;SDS011;6514;48.606;9.222;2024-02-28T01:36:12;25.33;;;14.80;;
12892;SDS011;6514;48.606;9.222;2024-02-28T01:38:39;22.97;;;13.70;;
12892;SDS011;6514;48.606;9.222;2024-02-28T01:41:06;19.27;;;13.23;;
12892;SDS011;6514;48.606;9.222;2024-02-28T01:43:33;19.67;;;13.10;;
12892;SDS011;6514;48.606;9.222;2024-02-28T01:46:11;20.60;;;14.20;;
12892;SDS011;6514;48.606;9.222;2024-02-28T01:48:47;20.70;;;13.93;;
12892;SDS011;6514;48.606;9.222;2024-02-28T01:51:14;21.60;;;14.13;;
12892;SDS011;6514;48.606;9.222;2024-02-28T01:53:42;22.07;;;14.80;;
12892;SDS011;6514;48.606;9.222;2024-02-28T01:56:10;20.70;;;13.83;;
12892;SDS011;6514;48.606;9.222;2024-02-28T01:58:38;22.23;;;14.30;;
12892;SDS011;6514;48.606;9.222;2024-02-28T02:01:07;21.07;;;13.83;;
12892;SDS011;6514;48.606;9.222;2024-02-28T02:03:35;22.73;;;14.90;;
12892;SDS011;6514;48.606;9.222;2024-02-28T02:06:02;22.87;;;14.57;;
12892;SDS011;6514;48.606;9.222;2024-02-28T02:08:30;21.53;;;13.50;;
12892;SDS011;6514;48.606;9.222;2024-02-28T02:10:57;22.70;;;14.80;;
12892;SDS011;6514;48.606;9.222;2024-02-28T02:13:24;22.23;;;13.83;;
12892;SDS011;6514;48.606;9.222;2024-02-28T02:15:51;23.47;;;13.83;;
12892;SDS011;6514;48.606;9.222;2024-02-28T02:18:19;23.47;;;14.67;;
12892;SDS011;6514;48.606;9.222;2024-02-28T02:20:46;21.10;;;15.17;;
12892;SDS011;6514;48.606;9.222;2024-02-28T02:23:17;21.53;;;13.67;;
12892;SDS011;6514;48.606;9.222;2024-02-28T02:25:44;21.70;;;14.00;;
12892;SDS011;6514;48.606;9.222;2024-02-28T02:28:11;22.67;;;14.20;;
12892;SDS011;6514;48.606;9.222;2024-02-28T02:30:38;22.70;;;14.37;;
12892;SDS011;6514;48.606;9.222;2024-02-28T02:33:06;25.27;;;15.00;;
12892;SDS011;6514;48.606;9.222;2024-02-28T02:35:33;21.97;;;13.93;;
12892;SDS011;6514;48.606;9.222;2024-02-28T02:38:00;20.77;;;14.80;;
12892;SDS011;6514;48.606;9.222;2024-02-28T02:40:29;23.37;;;15.17;;
12892;SDS011;6514;48.606;9.222;2024-02-28T02:42:55;21.13;;;14.70;;
12892;SDS011;6514;48.606;9.222;2024-02-28T02:45:22;22.67;;;14.83;;
12892;SDS011;6514;48.606;9.222;2024-02-28T02:47:49;23.27;;;15.23;;
12892;SDS011;6514;48.606;9.222;2024-02-28T02:50:16;21.37;;;14.33;;
12892;SDS011;6514;48.606;9.222;2024-02-28T02:52:43;23.23;;;15.17;;
12892;SDS011;6514;48.606;9.222;2024-02-28T02:55:09;23.40;;;14.73;;
12892;SDS011;6514;48.606;9.222;2024-02-28T02:57:39;24.40;;;13.90;;
12892;SDS011;6514;48.606;9.222;2024-02-28T03:00:07;24.10;;;14.50;;
12892;SDS011;6514;48.606;9.222;2024-02-28T03:02:35;22.83;;;15.53;;
12892;SDS011;6514;48.606;9.222;2024-02-28T03:05:03;19.93;;;13.97;;
12892;SDS011;6514;48.606;9.222;2024-02-28T03:07:31;23.37;;;14.90;;
12892;SDS011;6514;48.606;9.222;2024-02-28T03:09:58;23.30;;;14.73;;
12892;SDS011;6514;48.606;9.222;2024-02-28T03:12:25;21.63;;;14.17;;
12892;SDS011;6514;48.606;9.222;2024-02-28T03:14:53;22.33;;;14.60;;
12892;SDS011;6514;48.606;9.222;2024-02-28T03:17:20;23.57;;;14.57;;
12892;SDS011;6514;48.606;9.222;2024-02-28T03:19:49;22.07;;;14.33;;
12892;SDS011;6514;48.606;9.222;2024-02-28T03:22:16;22.77;;;14.20;;
12892;SDS011;6514;48.606;9.222;2024-02-28T03:24:43;24.20;;;14.87;;
12892;SDS011;6514;48.606;9.222;2024-02-28T03:27:10;23.07;;;13.97;;
12892;SDS011;6514;48.606;9.222;2024-02-28T03:29:37;24.53;;;15.13;;
12892;SDS011;6514;48.606;9.222;2024-02-28T03:32:05;22.40;;;14.63;;
12892;SDS011;6514;48.606;9.222;2024-02-28T03:34:32;22.93;;;14.37;;
12892;SDS011;6514;48.606;9.222;2024-02-28T03:36:59;22.87;;;14.67;;
12892;SDS011;6514;48.606;9.222;2024-02-28T03:39:26;20.57;;;13.73;;
12892;SDS011;6514;48.606;9.222;2024-02-28T03:41:53;22.13;;;14.30;;
12892;SDS011;6514;48.606;9.222;2024-02-28T03:44:20;22.70;;;13.70;;
12892;SDS011;6514;48.606;9.222;2024-02-28T03:46:47;21.00;;;13.50;;
12892;SDS011;6514;48.606;9.222;2024-02-28T03:49:15;20.00;;;13.93;;
12892;SDS011;6514;48.606;9.222;2024-02-28T03:51:42;23.93;;;13.67;;
12892;SDS011;6514;48.606;9.222;2024-02-28T03:54:08;22.53;;;13.73;;
12892;SDS011;6514;48.606;9.222;2024-02-28T03:56:35;21.20;;;13.27;;
12892;SDS011;6514;48.606;9.222;2024-02-28T03:59:02;22.63;;;13.20;;
12892;SDS011;6514;48.606;9.222;2024-02-28T04:01:29;20.33;;;12.90;;
12892;SDS011;6514;48.606;9.222;2024-02-28T04:03:56;20.23;;;11.97;;
12892;SDS011;6514;48.606;9.222;2024-02-28T04:06:24;19.83;;;13.43;;
12892;SDS011;6514;48.606;9.222;2024-02-28T04:08:51;21.60;;;13.10;;
12892;SDS011;6514;48.606;9.222;2024-02-28T04:11:18;20.67;;;13.10;;
12892;SDS011;6514;48.606;9.222;2024-02-28T04:13:45;21.97;;;12.63;;
12892;SDS011;6514;48.606;9.222;2024-02-28T04:16:12;20.37;;;13.10;;
12892;SDS011;6514;48.606;9.222;2024-02-28T04:18:39;24.20;;;14.60;;
12892;SDS011;6514;48.606;9.222;2024-02-28T04:21:06;21.87;;;13.43;;
12892;SDS011;6514;48.606;9.222;2024-02-28T04:23:34;25.07;;;14.43;;
12892;SDS011;6514;48.606;9.222;2024-02-28T04:26:00;23.27;;;14.00;;
12892;SDS011;6514;48.606;9.222;2024-02-28T04:28:28;21.47;;;13.17;;
12892;SDS011;6514;48.606;9.222;2024-02-28T04:30:55;20.97;;;12.93;;
12892;SDS011;6514;48.606;9.222;2024-02-28T04:33:22;21.93;;;13.47;;
12892;SDS011;6514;48.606;9.222;2024-02-28T04:35:49;21.00;;;12.90;;
12892;SDS011;6514;48.606;9.222;2024-02-28T04:38:16;21.77;;;13.97;;
12892;SDS011;6514;48.606;9.222;2024-02-28T04:40:44;25.50;;;15.33;;
12892;SDS011;6514;48.606;9.222;2024-02-28T04:43:11;22.43;;;14.07;;
12892;SDS011;6514;48.606;9.222;2024-02-28T04:45:37;27.50;;;15.07;;
12892;SDS011;6514;48.606;9.222;2024-02-28T04:48:07;26.97;;;16.07;;
12892;SDS011;6514;48.606;9.222;2024-02-28T04:50:34;22.03;;;14.67;;
12892;SDS011;6514;48.606;9.222;2024-02-28T04:53:01;22.07;;;13.90;;
12892;SDS011;6514;48.606;9.222;2024-02-28T04:55:28;21.53;;;15.00;;
12892;SDS011;6514;48.606;9.222;2024-02-28T04:57:56;25.33;;;14.63;;
12892;SDS011;6514;48.606;9.222;2024-02-28T05:00:23;24.73;;;15.27;;
12892;SDS011;6514;48.606;9.222;2024-02-28T05:02:50;26.30;;;14.57;;
12892;SDS011;6514;48.606;9.222;2024-02-28T05:05:17;22.43;;;14.80;;
12892;SDS011;6514;48.606;9.222;2024-02-28T05:07:44;24.37;;;15.33;;
12892;SDS011;6514;48.606;9.222;2024-02-28T05:10:10;24.27;;;14.53;;
12892;SDS011;6514;48.606;9.222;2024-02-28T05:12:36;23.50;;;14.63;;
12892;SDS011;6514;48.606;9.222;2024-02-28T05:15:05;28.73;;;14.77;;
12892;SDS011;6514;48.606;9.222;2024-02-28T05:17:33;24.13;;;14.47;;
12892;SDS011;6514;48.606;9.222;2024-02-28T05:19:59;22.57;;;15.00;;
12892;SDS011;6514;48.606;9.222;2024-02-28T05:22:26;24.53;;;15.07;;
12892;SDS011;6514;48.606;9.222;2024-02-28T05:24:53;20.03;;;13.17;;
12892;SDS011;6514;48.606;9.222;2024-02-28T05:27:20;23.40;;;14.50;;
12892;SDS011;6514;48.606;9.222;2024-02-28T05:29:47;22.97;;;14.67;;
12892;SDS011;6514;48.606;9.222;2024-02-28T05:32:15;24.20;;;14.67;;
12892;SDS011;6514;48.606;9.222;2024-02-28T05:34:43;23.77;;;13.90;;
12892;SDS011;6514;48.606;9.222;2024-02-28T05:37:10;23.70;;;14.37;;
12892;SDS011;6514;48.606;9.222;2024-02-28T05:39:37;23.30;;;13.97;;
12892;SDS011;6514;48.606;9.222;2024-02-28T05:42:04;25.03;;;14.70;;
12892;SDS011;6514;48.606;9.222;2024-02-28T05:44:31;25.67;;;15.20;;
12892;SDS011;6514;48.606;9.222;2024-02-28T05:46:59;23.77;;;14.57;;
12892;SDS011;6514;48.606;9.222;2024-02-28T05:49:27;23.47;;;14.90;;
12892;SDS011;6514;48.606;9.222;2024-02-28T05:51:54;22.43;;;14.57;;
12892;SDS011;6514;48.606;9.222;2024-02-28T05:54:21;24.97;;;14.63;;
12892;SDS011;6514;48.606;9.222;2024-02-28T05:56:48;24.37;;;14.70;;
12892;SDS011;6514;48.606;9.222;2024-02-28T05:59:15;22.67;;;13.93;;
12892;SDS011;6514;48.606;9.222;2024-02-28T06:01:41;23.40;;;14.83;;
12892;SDS011;6514;48.606;9.222;2024-02-28T06:04:10;22.63;;;14.40;;
12892;SDS011;6514;48.606;9.222;2024-02-28T06:06:39;23.07;;;14.67;;
12892;SDS011;6514;48.606;9.222;2024-02-28T06:09:06;20.37;;;13.50;;
12892;SDS011;6514;48.606;9.222;2024-02-28T06:11:35;23.73;;;14.70;;
12892;SDS011;6514;48.606;9.222;2024-02-28T06:14:02;22.87;;;14.57;;
12892;SDS011;6514;48.606;9.222;2024-02-28T06:16:29;21.73;;;13.63;;
12892;SDS011;6514;48.606;9.222;2024-02-28T06:18:56;25.80;;;15.97;;
12892;SDS011;6514;48.606;9.222;2024-02-28T06:21:23;22.87;;;14.87;;
12892;SDS011;6514;48.606;9.222;2024-02-28T06:23:52;21.93;;;14.43;;
12892;SDS011;6514;48.606;9.222;2024-02-28T06:26:19;26.37;;;15.07;;
12892;SDS011;6514;48.606;9.222;2024-02-28T06:28:46;24.53;;;14.87;;
12892;SDS011;6514;48.606;9.222;2024-02-28T06:31:14;23.50;;;13.80;;
12892;SDS011;6514;48.606;9.222;2024-02-28T06:33:41;25.27;;;14.60;;
12892;SDS011;6514;48.606;9.222;2024-02-28T06:36:08;22.07;;;14.17;;
12892;SDS011;6514;48.606;9.222;2024-02-28T06:38:35;21.53;;;13.93;;
12892;SDS011;6514;48.606;9.222;2024-02-28T06:41:04;21.33;;;13.37;;
12892;SDS011;6514;48.606;9.222;2024-02-28T06:43:32;22.20;;;14.90;;
12892;SDS011;6514;48.606;9.222;2024-02-28T06:46:00;21.30;;;13.70;;
12892;SDS011;6514;48.606;9.222;2024-02-28T06:48:27;20.73;;;13.63;;
12892;SDS011;6514;48.606;9.222;2024-02-28T06:50:54;22.20;;;13.10;;
12892;SDS011;6514;48.606;9.222;2024-02-28T06:53:21;20.73;;;13.03;;
12892;SDS011;6514;48.606;9.222;2024-02-28T06:55:48;20.27;;;13.43;;
12892;SDS011;6514;48.606;9.222;2024-02-28T06:58:16;19.13;;;13.20;;
12892;SDS011;6514;48.606;9.222;2024-02-28T07:00:43;20.57;;;12.97;;
12892;SDS011;6514;48.606;9.222;2024-02-28T07:03:10;20.07;;;12.93;;
12892;SDS011;6514;48.606;9.222;2024-02-28T07:05:36;19.90;;;13.03;;
12892;SDS011;6514;48.606;9.222;2024-02-28T07:08:03;20.83;;;13.53;;
12892;SDS011;6514;48.606;9.222;2024-02-28T07:10:30;19.90;;;13.30;;
12892;SDS011;6514;48.606;9.222;2024-02-28T07:12:57;21.03;;;13.33;;
12892;SDS011;6514;48.606;9.222;2024-02-28T07:15:24;20.40;;;13.23;;
12892;SDS011;6514;48.606;9.222;2024-02-28T07:17:51;20.50;;;13.00;;
12892;SDS011;6514;48.606;9.222;2024-02-28T07:20:18;18.10;;;12.77;;
12892;SDS011;6514;48.606;9.222;2024-02-28T07:22:45;21.63;;;13.17;;
12892;SDS011;6514;48.606;9.222;2024-02-28T07:25:13;20.33;;;12.87;;
12892;SDS011;6514;48.606;9.222;2024-02-28T07:27:39;19.80;;;13.17;;
12892;SDS011;6514;48.606;9.222;2024-02-28T07:30:07;23.60;;;13.77;;
12892;SDS011;6514;48.606;9.222;2024-02-28T07:32:35;20.40;;;13.90;;
12892;SDS011;6514;48.606;9.222;2024-02-28T07:35:02;21.63;;;13.83;;
12892;SDS011;6514;48.606;9.222;2024-02-28T07:37:29;21.30;;;13.03;;
12892;SDS011;6514;48.606;9.222;2024-02-28T07:39:56;18.60;;;12.73;;
12892;SDS011;6514;48.606;9.222;2024-02-28T07:42:23;21.87;;;14.00;;
12892;SDS011;6514;48.606;9.222;2024-02-28T07:44:50;24.97;;;14.60;;
12892;SDS011;6514;48.606;9.222;2024-02-28T07:47:21;20.83;;;13.87;;
12892;SDS011;6514;48.606;9.222;2024-02-28T07:49:50;21.37;;;14.37;;
12892;SDS011;6514;48.606;9.222;2024-02-28T07:52:17;22.87;;;13.93;;
12892;SDS011;6514;48.606;9.222;2024-02-28T07:54:44;21.60;;;14.63;;
12892;SDS011;6514;48.606;9.222;2024-02-28T07:57:11;21.87;;;13.70;;
12892;SDS011;6514;48.606;9.222;2024-02-28T07:59:39;21.80;;;13.90;;
12892;SDS011;6514;48.606;9.222;2024-02-28T08:02:06;20.67;;;14.00;;
12892;SDS011;6514;48.606;9.222;2024-02-28T08:04:33;21.60;;;13.83;;
12892;SDS011;6514;48.606;9.222;2024-02-28T08:07:01;18.63;;;12.90;;
12892;SDS011;6514;48.606;9.222;2024-02-28T08:09:28;19.53;;;13.17;;
12892;SDS011;6514;48.606;9.222;2024-02-28T08:11:55;20.50;;;12.90;;
12892;SDS011;6514;48.606;9.222;2024-02-28T08:14:24;17.10;;;12.83;;
12892;SDS011;6514;48.606;9.222;2024-02-28T08:16:51;18.70;;;12.60;;
12892;SDS011;6514;48.606;9.222;2024-02-28T08:19:17;21.83;;;13.03;;
12892;SDS011;6514;48.606;9.222;2024-02-28T08:21:44;19.23;;;12.73;;
12892;SDS011;6514;48.606;9.222;2024-02-28T08:24:12;19.33;;;13.17;;
12892;SDS011;6514;48.606;9.222;2024-02-28T08:26:39;18.27;;;12.90;;
12892;SDS011;6514;48.606;9.222;2024-02-28T08:29:07;17.67;;;12.33;;
12892;SDS011;6514;48.606;9.222;2024-02-28T08:31:39;19.10;;;12.50;;
12892;SDS011;6514;48.606;9.222;2024-02-28T08:34:06;19.20;;;12.43;;
12892;SDS011;6514;48.606;9.222;2024-02-28T08:36:33;20.93;;;12.60;;
12892;SDS011;6514;48.606;9.222;2024-02-28T08:39:01;19.47;;;13.47;;
12892;SDS011;6514;48.606;9.222;2024-02-28T08:41:31;19.07;;;12.97;;
12892;SDS011;6514;48.606;9.222;2024-02-28T08:43:58;18.87;;;12.33;;
12892;SDS011;6514;48.606;9.222;2024-02-28T08:46:25;19.27;;;13.50;;
12892;SDS011;6514;48.606;9.222;2024-02-28T08:48:52;17.77;;;12.30;;
12892;SDS011;6514;48.606;9.222;2024-02-28T08:51:19;19.47;;;12.67;;
12892;SDS011;6514;48.606;9.222;2024-02-28T08:53:45;19.00;;;12.30;;
12892;SDS011;6514;48.606;9.222;2024-02-28T08:56:12;20.13;;;12.93;;
12892;SDS011;6514;48.606;9.222;2024-02-28T08:58:40;16.90;;;12.07;;
12892;SDS011;6514;48.606;9.222;2024-02-28T09:01:13;20.13;;;12.40;;
12892;SDS011;6514;48.606;9.222;2024-02-28T09:03:40;18.90;;;12.37;;
12892;SDS011;6514;48.606;9.222;2024-02-28T09:06:07;17.53;;;12.13;;
12892;SDS011;6514;48.606;9.222;2024-02-28T09:08:34;16.47;;;11.27;;
12892;SDS011;6514;48.606;9.222;2024-02-28T09:11:01;17.00;;;11.27;;
12892;SDS011;6514;48.606;9.222;2024-02-28T09:13:30;17.10;;;10.83;;
12892;SDS011;6514;48.606;9.222;2024-02-28T09:15:58;14.97;;;10.97;;
12892;SDS011;6514;48.606;9.222;2024-02-28T09:18:25;16.13;;;10.83;;
12892;SDS011;6514;48.606;9.222;2024-02-28T09:20:52;18.57;;;11.40;;
12892;SDS011;6514;48.606;9.222;2024-02-28T09:23:18;17.63;;;11.57;;
12892;SDS011;6514;48.606;9.222;2024-02-28T09:25:48;19.50;;;10.83;;
12892;SDS011;6514;48.606;9.222;2024-02-28T09:28:15;16.00;;;11.80;;
12892;SDS011;6514;48.606;9.222;2024-02-28T09:30:42;17.20;;;10.40;;
12892;SDS011;6514;48.606;9.222;2024-02-28T09:33:11;16.53;;;11.37;;
12892;SDS011;6514;48.606;9.222;2024-02-28T09:35:38;16.87;;;11.17;;
12892;SDS011;6514;48.606;9.222;2024-02-28T09:38:05;15.30;;;10.87;;
12892;SDS011;6514;48.606;9.222;2024-02-28T09:40:32;15.73;;;10.53;;
12892;SDS011;6514;48.606;9.222;2024-02-28T09:43:00;15.93;;;10.90;;
12892;SDS011;6514;48.606;9.222;2024-02-28T09:45:28;15.73;;;10.37;;
12892;SDS011;6514;48.606;9.222;2024-02-28T09:47:57;14.57;;;10.17;;
12892;SDS011;6514;48.606;9.222;2024-02-28T09:50:27;17.47;;;11.60;;
12892;SDS011;6514;48.606;9.222;2024-02-28T09:52:54;17.30;;;10.87;;
12892;SDS011;6514;48.606;9.222;2024-02-28T09:55:20;17.10;;;11.90;;
12892;SDS011;6514;48.606;9.222;2024-02-28T09:57:48;16.80;;;10.63;;
12892;SDS011;6514;48.606;9.222;2024-02-28T10:00:17;13.83;;;9.87;;
12892;SDS011;6514;48.606;9.222;2024-02-28T10:02:46;17.60;;;11.67;;
12892;SDS011;6514;48.606;9.222;2024-02-28T10:05:15;18.67;;;11.63;;
12892;SDS011;6514;48.606;9.222;2024-02-28T10:07:45;17.20;;;10.87;;
12892;SDS011;6514;48.606;9.222;2024-02-28T10:10:12;15.63;;;10.60;;
12892;SDS011;6514;48.606;9.222;2024-02-28T10:12:40;17.53;;;11.37;;
12892;SDS011;6514;48.606;9.222;2024-02-28T10:15:09;16.70;;;10.90;;
12892;SDS011;6514;48.606;9.222;2024-02-28T10:17:36;14.87;;;10.67;;
12892;SDS011;6514;48.606;9.222;2024-02-28T10:20:04;15.57;;;10.53;;
12892;SDS011;6514;48.606;9.222;2024-02-28T10:22:34;15.53;;;11.03;;
12892;SDS011;6514;48.606;9.222;2024-02-28T10:25:02;18.07;;;11.37;;
12892;SDS011;6514;48.606;9.222;2024-02-28T10:27:31;15.33;;;10.57;;
12892;SDS011;6514;48.606;9.222;2024-02-28T10:29:58;16.73;;;11.97;;
12892;SDS011;6514;48.606;9.222;2024-02-28T10:32:26;15.53;;;10.67;;
12892;SDS011;6514;48.606;9.222;2024-02-28T10:34:53;16.10;;;11.67;;
12892;SDS011;6514;48.606;9.222;2024-02-28T10:37:20;15.27;;;11.77;;
12892;SDS011;6514;48.606;9.222;2024-02-28T10:39:48;18.10;;;11.47;;
12892;SDS011;6514;48.606;9.222;2024-02-28T10:42:19;17.60;;;12.17;;
12892;SDS011;6514;48.606;9.222;2024-02-28T10:44:49;20.87;;;11.57;;
12892;SDS011;6514;48.606;9.222;2024-02-28T10:47:17;17.40;;;12.07;;
12892;SDS011;6514;48.606;9.222;2024-02-28T10:49:44;16.73;;;11.10;;
12892;SDS011;6514;48.606;9.222;2024-02-28T10:52:11;16.90;;;11.37;;
12892;SDS011;6514;48.606;9.222;2024-02-28T10:54:42;15.53;;;11.03;;
12892;SDS011;6514;48.606;9.222;2024-02-28T10:57:09;19.70;;;12.40;;
12892;SDS011;6514;48.606;9.222;2024-02-28T10:59:40;16.83;;;11.90;;
12892;SDS011;6514;48.606;9.222;2024-02-28T11:02:10;16.33;;;12.37;;
12892;SDS011;6514;48.606;9.222;2024-02-28T11:04:38;17.40;;;12.03;;
12892;SDS011;6514;48.606;9.222;2024-02-28T11:07:05;16.47;;;11.37;;
12892;SDS011;6514;48.606;9.222;2024-02-28T11:09:32;16.97;;;11.23;;
12892;SDS011;6514;48.606;9.222;2024-02-28T11:12:00;16.27;;;12.20;;
12892;SDS011;6514;48.606;9.222;2024-02-28T11:14:30;16.53;;;10.60;;
12892;SDS011;6514;48.606;9.222;2024-02-28T11:17:02;15.73;;;11.90;;
12892;SDS011;6514;48.606;9.222;2024-02-28T11:19:30;15.73;;;11.03;;
12892;SDS011;6514;48.606;9.222;2024-02-28T11:21:59;16.70;;;11.33;;
12892;SDS011;6514;48.606;9.222;2024-02-28T11:24:29;18.00;;;12.30;;
12892;SDS011;6514;48.606;9.222;2024-02-28T11:26:56;18.03;;;12.37;;
12892;SDS011;6514;48.606;9.222;2024-02-28T11:29:24;16.97;;;11.70;;
12892;SDS011;6514;48.606;9.222;2024-02-28T11:31:52;16.17;;;11.97;;
12892;SDS011;6514;48.606;9.222;2024-02-28T11:34:21;18.07;;;11.97;;
12892;SDS011;6514;48.606;9.222;2024-02-28T11:36:48;16.23;;;11.67;;
12892;SDS011;6514;48.606;9.222;2024-02-28T11:39:15;18.17;;;11.87;;
12892;SDS011;6514;48.606;9.222;2024-02-28T11:41:42;16.93;;;11.47;;
12892;SDS011;6514;48.606;9.222;2024-02-28T11:44:11;15.23;;;10.63;;
12892;SDS011;6514;48.606;9.222;2024-02-28T11:46:42;14.40;;;11.33;;
12892;SDS011;6514;48.606;9.222;2024-02-28T11:49:10;16.63;;;11.57;;
12892;SDS011;6514;48.606;9.222;2024-02-28T11:51:40;16.00;;;11.17;;
12892;SDS011;6514;48.606;9.222;2024-02-28T11:54:07;16.53;;;11.57;;
12892;SDS011;6514;48.606;9.222;2024-02-28T11:56:35;16.37;;;11.13;;
12892;SDS011;6514;48.606;9.222;2024-02-28T11:59:03;19.50;;;12.90;;
12892;SDS011;6514;48.606;9.222;2024-02-28T12:01:33;18.90;;;12.70;;
12892;SDS011;6514;48.606;9.222;2024-02-28T12:04:02;19.50;;;12.93;;
12892;SDS011;6514;48.606;9.222;2024-02-28T12:06:30;18.70;;;13.50;;
12892;SDS011;6514;48.606;9.222;2024-02-28T12:08:58;18.83;;;13.50;;
12892;SDS011;6514;48.606;9.222;2024-02-28T12:11:26;18.90;;;12.80;;
12892;SDS011;6514;48.606;9.222;2024-02-28T12:13:54;19.53;;;13.30;;
12892;SDS011;6514;48.606;9.222;2024-02-28T12:16:22;18.37;;;13.30;;
12892;SDS011;6514;48.606;9.222;2024-02-28T12:18:52;20.00;;;13.60;;
12892;SDS011;6514;48.606;9.222;2024-02-28T12:21:19;21.47;;;12.60;;
12892;SDS011;6514;48.606;9.222;2024-02-28T12:23:46;17.37;;;12.53;;
12892;SDS011;6514;48.606;9.222;2024-02-28T12:26:16;17.97;;;12.50;;
12892;SDS011;6514;48.606;9.222;2024-02-28T12:28:43;17.57;;;12.70;;
12892;SDS011;6514;48.606;9.222;2024-02-28T12:31:10;20.33;;;13.27;;
12892;SDS011;6514;48.606;9.222;2024-02-28T12:33:38;17.07;;;12.60;;
12892;SDS011;6514;48.606;9.222;2024-02-28T12:36:05;17.07;;;13.20;;
12892;SDS011;6514;48.606;9.222;2024-02-28T12:38:32;15.50;;;11.53;;
12892;SDS011;6514;48.606;9.222;2024-02-28T12:40:59;18.13;;;11.93;;
12892;SDS011;6514;48.606;9.222;2024-02-28T12:43:29;17.90;;;13.07;;
12892;SDS011;6514;48.606;9.222;2024-02-28T12:45:57;17.90;;;12.97;;
12892;SDS011;6514;48.606;9.222;2024-02-28T12:48:24;17.23;;;11.80;;
12892;SDS011;6514;48.606;9.222;2024-02-28T12:50:50;16.80;;;11.80;;
12892;SDS011;6514;48.606;9.222;2024-02-28T12:53:18;17.47;;;11.10;;
12892;SDS011;6514;48.606;9.222;2024-02-28T12:55:44;16.33;;;11.73;;
12892;SDS011;6514;48.606;9.222;2024-02-28T12:58:11;17.50;;;13.00;;
12892;SDS011;6514;48.606;9.222;2024-02-28T13:00:39;20.73;;;12.77;;
12892;SDS011;6514;48.606;9.222;2024-02-28T13:03:08;18.73;;;12.70;;
12892;SDS011;6514;48.606;9.222;2024-02-28T13:05:35;20.43;;;12.53;;
12892;SDS011;6514;48.606;9.222;2024-02-28T13:08:02;19.87;;;12.10;;
12892;SDS011;6514;48.606;9.222;2024-02-28T13:10:29;20.10;;;12.97;;
12892;SDS011;6514;48.606;9.222;2024-02-28T13:12:59;16.53;;;11.67;;
12892;SDS011;6514;48.606;9.222;2024-02-28T13:15:26;20.53;;;12.23;;
12892;SDS011;6514;48.606;9.222;2024-02-28T13:17:54;17.93;;;11.87;;
12892;SDS011;6514;48.606;9.222;2024-02-28T13:20:21;19.73;;;11.67;;
12892;SDS011;6514;48.606;9.222;2024-02-28T13:22:48;18.30;;;11.93;;
12892;SDS011;6514;48.606;9.222;2024-02-28T13:25:16;17.67;;;12.23;;
12892;SDS011;6514;48.606;9.222;2024-02-28T13:27:44;19.30;;;12.77;;
12892;SDS011;6514;48.606;9.222;2024-02-28T13:30:12;16.57;;;12.23;;
12892;SDS011;6514;48.606;9.222;2024-02-28T13:32:40;19.73;;;14.13;;
12892;SDS011;6514;48.606;9.222;2024-02-28T13:35:09;19.07;;;12.97;;
12892;SDS011;6514;48.606;9.222;2024-02-28T13:37:36;17.63;;;12.30;;
12892;SDS011;6514;48.606;9.222;2024-02-28T13:40:06;16.57;;;12.27;;
12892;SDS011;6514;48.606;9.222;2024-02-28T13:42:35;16.30;;;11.60;;
12892;SDS011;6514;48.606;9.222;2024-02-28T13:45:02;15.60;;;11.30;;
12892;SDS011;6514;48.606;9.222;2024-02-28T13:47:32;18.93;;;12.13;;
12892;SDS011;6514;48.606;9.222;2024-02-28T13:49:59;16.23;;;11.20;;
12892;SDS011;6514;48.606;9.222;2024-02-28T13:52:27;17.17;;;11.07;;
12892;SDS011;6514;48.606;9.222;2024-02-28T13:54:54;17.10;;;12.70;;
12892;SDS011;6514;48.606;9.222;2024-02-28T13:57:21;17.77;;;12.70;;
12892;SDS011;6514;48.606;9.222;2024-02-28T13:59:47;19.57;;;13.27;;
12892;SDS011;6514;48.606;9.222;2024-02-28T14:02:16;18.73;;;13.07;;
12892;SDS011;6514;48.606;9.222;2024-02-28T14:04:43;20.57;;;13.67;;
12892;SDS011;6514;48.606;9.222;2024-02-28T14:07:15;20.43;;;13.20;;
12892;SDS011;6514;48.606;9.222;2024-02-28T14:09:43;19.37;;;12.50;;
12892;SDS011;6514;48.606;9.222;2024-02-28T14:12:11;19.00;;;12.53;;
12892;SDS011;6514;48.606;9.222;2024-02-28T14:14:38;20.33;;;13.23;;
12892;SDS011;6514;48.606;9.222;2024-02-28T14:17:06;19.67;;;13.10;;
12892;SDS011;6514;48.606;9.222;2024-02-28T14:19:33;18.33;;;12.23;;
12892;SDS011;6514;48.606;9.222;2024-02-28T14:22:01;16.63;;;11.67;;
12892;SDS011;6514;48.606;9.222;2024-02-28T14:24:29;21.97;;;14.10;;
12892;SDS011;6514;48.606;9.222;2024-02-28T14:26:57;18.20;;;12.83;;
12892;SDS011;6514;48.606;9.222;2024-02-28T14:29:24;18.60;;;13.07;;
12892;SDS011;6514;48.606;9.222;2024-02-28T14:31:51;21.53;;;12.70;;
12892;SDS011;6514;48.606;9.222;2024-02-28T14:34:18;17.13;;;12.00;;